sensor_id;sensor_type;location;lat;lon;timestamp;P1;durP1;ratioP1;P2;durP2;ratioP2
67869;SDS011;54673;52.262;6.830;2023-07-31T00:01:34;1.70;;;1.13;;
67869;SDS011;54673;52.262;6.830;2023-07-31T00:04:00;1.27;;;1.10;;
67869;SDS011;54673;52.262;6.830;2023-07-31T00:06:25;1.77;;;1.00;;
67869;SDS011;54673;52.262;6.830;2023-07-31T00:08:51;2.73;;;1.23;;
67869;SDS011;54673;52.262;6.830;2023-07-31T00:11:16;1.65;;;1.10;;
67869;SDS011;54673;52.262;6.830;2023-07-31T00:13:42;2.83;;;1.50;;
67869;SDS011;54673;52.262;6.830;2023-07-31T00:16:08;1.70;;;1.20;;
67869;SDS011;54673;52.262;6.830;2023-07-31T00:18:33;1.40;;;1.10;;
67869;SDS011;54673;52.262;6.830;2023-07-31T00:20:59;2.17;;;1.10;;
67869;SDS011;54673;52.262;6.830;2023-07-31T00:23:24;1.40;;;1.30;;
67869;SDS011;54673;52.262;6.830;2023-07-31T00:25:50;1.20;;;1.10;;
67869;SDS011;54673;52.262;6.830;2023-07-31T00:28:15;3.28;;;1.40;;
67869;SDS011;54673;52.262;6.830;2023-07-31T00:30:41;1.20;;;1.03;;
67869;SDS011;54673;52.262;6.830;2023-07-31T00:33:06;1.80;;;1.10;;
67869;SDS011;54673;52.262;6.830;2023-07-31T00:35:32;1.50;;;1.05;;
67869;SDS011;54673;52.262;6.830;2023-07-31T00:37:58;2.63;;;1.13;;
67869;SDS011;54673;52.262;6.830;2023-07-31T00:40:23;2.42;;;1.52;;
67869;SDS011;54673;52.262;6.830;2023-07-31T00:42:49;1.87;;;1.10;;
67869;SDS011;54673;52.262;6.830;2023-07-31T00:45:14;1.50;;;1.20;;
67869;SDS011;54673;52.262;6.830;2023-07-31T00:47:40;2.00;;;1.13;;
67869;SDS011;54673;52.262;6.830;2023-07-31T00:50:06;1.37;;;1.00;;
67869;SDS011;54673;52.262;6.830;2023-07-31T00:52:32;2.03;;;1.30;;
67869;SDS011;54673;52.262;6.830;2023-07-31T00:54:58;2.33;;;1.13;;
67869;SDS011;54673;52.262;6.830;2023-07-31T00:57:24;1.93;;;1.47;;
67869;SDS011;54673;52.262;6.830;2023-07-31T00:59:50;1.20;;;1.00;;
67869;SDS011;54673;52.262;6.830;2023-07-31T01:02:15;1.83;;;1.17;;
67869;SDS011;54673;52.262;6.830;2023-07-31T01:04:42;1.63;;;1.20;;
67869;SDS011;54673;52.262;6.830;2023-07-31T01:09:55;1.85;;;1.10;;
67869;SDS011;54673;52.262;6.830;2023-07-31T01:12:29;1.00;;;0.90;;
67869;SDS011;54673;52.262;6.830;2023-07-31T01:15:06;1.50;;;1.00;;
67869;SDS011;54673;52.262;6.830;2023-07-31T01:17:36;1.70;;;0.90;;
67869;SDS011;54673;52.262;6.830;2023-07-31T01:20:05;1.30;;;0.90;;
67869;SDS011;54673;52.262;6.830;2023-07-31T01:28:35;1.20;;;0.90;;
67869;SDS011;54673;52.262;6.830;2023-07-31T01:31:20;0.80;;;0.80;;
67869;SDS011;54673;52.262;6.830;2023-07-31T01:33:49;1.93;;;0.87;;
67869;SDS011;54673;52.262;6.830;2023-07-31T01:36:15;1.13;;;0.98;;
67869;SDS011;54673;52.262;6.830;2023-07-31T01:38:41;1.17;;;1.00;;
67869;SDS011;54673;52.262;6.830;2023-07-31T01:41:07;0.90;;;0.80;;
67869;SDS011;54673;52.262;6.830;2023-07-31T01:43:32;1.37;;;0.93;;
67869;SDS011;54673;52.262;6.830;2023-07-31T01:45:58;1.50;;;1.00;;
67869;SDS011;54673;52.262;6.830;2023-07-31T01:48:23;0.80;;;0.70;;
67869;SDS011;54673;52.262;6.830;2023-07-31T01:50:49;0.90;;;0.77;;
67869;SDS011;54673;52.262;6.830;2023-07-31T01:53:14;1.27;;;0.80;;
67869;SDS011;54673;52.262;6.830;2023-07-31T01:55:40;0.70;;;0.70;;
67869;SDS011;54673;52.262;6.830;2023-07-31T01:58:06;1.33;;;0.70;;
67869;SDS011;54673;52.262;6.830;2023-07-31T02:00:31;0.80;;;0.70;;
67869;SDS011;54673;52.262;6.830;2023-07-31T02:02:57;0.50;;;0.50;;
67869;SDS011;54673;52.262;6.830;2023-07-31T02:05:24;0.85;;;0.50;;
67869;SDS011;54673;52.262;6.830;2023-07-31T02:07:50;1.10;;;0.63;;
67869;SDS011;54673;52.262;6.830;2023-07-31T02:10:16;8.43;;;0.73;;
67869;SDS011;54673;52.262;6.830;2023-07-31T02:12:42;2.30;;;0.70;;
67869;SDS011;54673;52.262;6.830;2023-07-31T02:15:07;0.90;;;0.70;;
67869;SDS011;54673;52.262;6.830;2023-07-31T02:17:33;0.90;;;0.80;;
67869;SDS011;54673;52.262;6.830;2023-07-31T02:19:59;1.43;;;0.73;;
67869;SDS011;54673;52.262;6.830;2023-07-31T02:22:24;4.05;;;0.50;;
67869;SDS011;54673;52.262;6.830;2023-07-31T02:24:50;1.20;;;0.50;;
67869;SDS011;54673;52.262;6.830;2023-07-31T02:27:15;0.80;;;0.60;;
67869;SDS011;54673;52.262;6.830;2023-07-31T02:29:41;1.83;;;1.08;;
67869;SDS011;54673;52.262;6.830;2023-07-31T02:32:07;1.33;;;0.77;;
67869;SDS011;54673;52.262;6.830;2023-07-31T02:34:32;2.53;;;1.17;;
67869;SDS011;54673;52.262;6.830;2023-07-31T02:36:58;2.70;;;0.80;;
67869;SDS011;54673;52.262;6.830;2023-07-31T02:39:23;1.10;;;1.00;;
67869;SDS011;54673;52.262;6.830;2023-07-31T02:41:49;2.35;;;0.90;;
67869;SDS011;54673;52.262;6.830;2023-07-31T02:44:15;1.60;;;1.07;;
67869;SDS011;54673;52.262;6.830;2023-07-31T02:46:40;5.70;;;2.97;;
67869;SDS011;54673;52.262;6.830;2023-07-31T02:49:06;7.93;;;3.87;;
67869;SDS011;54673;52.262;6.830;2023-07-31T02:51:32;4.95;;;2.00;;
67869;SDS011;54673;52.262;6.830;2023-07-31T02:53:57;7.87;;;3.10;;
67869;SDS011;54673;52.262;6.830;2023-07-31T02:56:23;11.85;;;4.43;;
67869;SDS011;54673;52.262;6.830;2023-07-31T02:58:48;9.87;;;3.30;;
67869;SDS011;54673;52.262;6.830;2023-07-31T03:01:14;14.27;;;5.13;;
67869;SDS011;54673;52.262;6.830;2023-07-31T03:03:41;10.55;;;4.13;;
67869;SDS011;54673;52.262;6.830;2023-07-31T03:06:06;11.67;;;3.93;;
67869;SDS011;54673;52.262;6.830;2023-07-31T03:08:32;4.05;;;2.40;;
67869;SDS011;54673;52.262;6.830;2023-07-31T03:10:57;3.20;;;2.20;;
67869;SDS011;54673;52.262;6.830;2023-07-31T03:13:23;5.65;;;2.25;;
67869;SDS011;54673;52.262;6.830;2023-07-31T03:15:49;9.23;;;2.27;;
67869;SDS011;54673;52.262;6.830;2023-07-31T03:18:15;7.50;;;1.95;;
67869;SDS011;54673;52.262;6.830;2023-07-31T03:20:43;3.20;;;1.70;;
67869;SDS011;54673;52.262;6.830;2023-07-31T03:23:09;4.07;;;2.40;;
67869;SDS011;54673;52.262;6.830;2023-07-31T03:25:35;5.70;;;2.33;;
67869;SDS011;54673;52.262;6.830;2023-07-31T03:28:00;6.05;;;2.83;;
67869;SDS011;54673;52.262;6.830;2023-07-31T03:30:26;5.90;;;2.30;;
67869;SDS011;54673;52.262;6.830;2023-07-31T03:32:52;7.10;;;3.20;;
67869;SDS011;54673;52.262;6.830;2023-07-31T03:35:17;3.43;;;2.10;;
67869;SDS011;54673;52.262;6.830;2023-07-31T03:37:43;8.30;;;3.42;;
67869;SDS011;54673;52.262;6.830;2023-07-31T03:40:09;5.40;;;2.60;;
67869;SDS011;54673;52.262;6.830;2023-07-31T03:42:35;5.95;;;2.80;;
67869;SDS011;54673;52.262;6.830;2023-07-31T03:45:01;3.63;;;2.10;;
67869;SDS011;54673;52.262;6.830;2023-07-31T03:47:27;9.18;;;3.08;;
67869;SDS011;54673;52.262;6.830;2023-07-31T03:49:52;5.30;;;2.27;;
67869;SDS011;54673;52.262;6.830;2023-07-31T03:52:18;9.27;;;3.67;;
67869;SDS011;54673;52.262;6.830;2023-07-31T03:54:43;7.63;;;3.60;;
67869;SDS011;54673;52.262;6.830;2023-07-31T03:57:12;6.90;;;3.47;;
67869;SDS011;54673;52.262;6.830;2023-07-31T03:59:37;5.73;;;2.50;;
67869;SDS011;54673;52.262;6.830;2023-07-31T04:02:04;10.20;;;4.53;;
67869;SDS011;54673;52.262;6.830;2023-07-31T04:04:29;10.13;;;3.30;;
67869;SDS011;54673;52.262;6.830;2023-07-31T04:06:55;11.77;;;4.18;;
67869;SDS011;54673;52.262;6.830;2023-07-31T04:09:21;6.83;;;2.33;;
67869;SDS011;54673;52.262;6.830;2023-07-31T04:11:46;13.33;;;4.27;;
67869;SDS011;54673;52.262;6.830;2023-07-31T04:14:12;10.82;;;4.60;;
67869;SDS011;54673;52.262;6.830;2023-07-31T04:16:37;13.60;;;5.43;;
67869;SDS011;54673;52.262;6.830;2023-07-31T04:19:03;6.90;;;3.13;;
67869;SDS011;54673;52.262;6.830;2023-07-31T04:21:29;12.03;;;3.27;;
67869;SDS011;54673;52.262;6.830;2023-07-31T04:23:54;14.93;;;5.03;;
67869;SDS011;54673;52.262;6.830;2023-07-31T04:26:21;13.27;;;5.33;;
67869;SDS011;54673;52.262;6.830;2023-07-31T04:28:47;18.45;;;4.95;;
67869;SDS011;54673;52.262;6.830;2023-07-31T04:31:12;20.90;;;6.80;;
67869;SDS011;54673;52.262;6.830;2023-07-31T04:33:38;17.45;;;5.15;;
67869;SDS011;54673;52.262;6.830;2023-07-31T04:36:04;13.97;;;4.47;;
67869;SDS011;54673;52.262;6.830;2023-07-31T04:38:30;13.32;;;4.90;;
67869;SDS011;54673;52.262;6.830;2023-07-31T04:40:55;16.93;;;5.97;;
67869;SDS011;54673;52.262;6.830;2023-07-31T04:43:21;14.50;;;5.27;;
67869;SDS011;54673;52.262;6.830;2023-07-31T04:45:47;11.02;;;4.43;;
67869;SDS011;54673;52.262;6.830;2023-07-31T04:48:13;12.77;;;4.87;;
67869;SDS011;54673;52.262;6.830;2023-07-31T04:50:39;17.38;;;4.57;;
67869;SDS011;54673;52.262;6.830;2023-07-31T04:53:05;15.77;;;6.20;;
67869;SDS011;54673;52.262;6.830;2023-07-31T04:55:30;21.43;;;7.10;;
67869;SDS011;54673;52.262;6.830;2023-07-31T04:57:57;15.38;;;5.65;;
67869;SDS011;54673;52.262;6.830;2023-07-31T05:00:24;17.40;;;5.60;;
67869;SDS011;54673;52.262;6.830;2023-07-31T05:02:49;9.98;;;4.00;;
67869;SDS011;54673;52.262;6.830;2023-07-31T05:05:15;12.67;;;4.67;;
67869;SDS011;54673;52.262;6.830;2023-07-31T05:07:40;16.33;;;5.23;;
67869;SDS011;54673;52.262;6.830;2023-07-31T05:10:06;19.87;;;6.07;;
67869;SDS011;54673;52.262;6.830;2023-07-31T05:12:32;21.35;;;5.63;;
67869;SDS011;54673;52.262;6.830;2023-07-31T05:14:58;11.60;;;3.80;;
67869;SDS011;54673;52.262;6.830;2023-07-31T05:17:23;12.97;;;3.60;;
67869;SDS011;54673;52.262;6.830;2023-07-31T05:19:49;15.20;;;4.45;;
67869;SDS011;54673;52.262;6.830;2023-07-31T05:22:14;13.80;;;4.73;;
67869;SDS011;54673;52.262;6.830;2023-07-31T05:24:40;16.73;;;5.53;;
67869;SDS011;54673;52.262;6.830;2023-07-31T05:27:06;9.35;;;3.83;;
67869;SDS011;54673;52.262;6.830;2023-07-31T05:29:31;9.73;;;3.80;;
67869;SDS011;54673;52.262;6.830;2023-07-31T05:31:57;14.80;;;5.10;;
67869;SDS011;54673;52.262;6.830;2023-07-31T05:34:22;13.77;;;4.67;;
67869;SDS011;54673;52.262;6.830;2023-07-31T05:36:48;11.68;;;4.15;;
67869;SDS011;54673;52.262;6.830;2023-07-31T05:39:14;14.37;;;4.63;;
67869;SDS011;54673;52.262;6.830;2023-07-31T05:41:39;11.57;;;4.17;;
67869;SDS011;54673;52.262;6.830;2023-07-31T05:44:05;7.28;;;3.40;;
67869;SDS011;54673;52.262;6.830;2023-07-31T05:46:30;11.43;;;3.93;;
67869;SDS011;54673;52.262;6.830;2023-07-31T05:48:56;13.07;;;4.30;;
67869;SDS011;54673;52.262;6.830;2023-07-31T05:51:22;15.03;;;4.80;;
67869;SDS011;54673;52.262;6.830;2023-07-31T05:53:47;11.13;;;3.83;;
67869;SDS011;54673;52.262;6.830;2023-07-31T05:56:13;12.30;;;4.10;;
67869;SDS011;54673;52.262;6.830;2023-07-31T05:58:38;9.67;;;3.83;;
67869;SDS011;54673;52.262;6.830;2023-07-31T06:01:04;12.45;;;3.75;;
67869;SDS011;54673;52.262;6.830;2023-07-31T06:03:30;11.83;;;3.87;;
67869;SDS011;54673;52.262;6.830;2023-07-31T06:05:55;11.00;;;4.00;;
67869;SDS011;54673;52.262;6.830;2023-07-31T06:08:21;8.97;;;3.37;;
67869;SDS011;54673;52.262;6.830;2023-07-31T06:10:46;8.00;;;3.33;;
67869;SDS011;54673;52.262;6.830;2023-07-31T06:13:12;9.60;;;3.60;;
67869;SDS011;54673;52.262;6.830;2023-07-31T06:15:38;11.87;;;4.17;;
67869;SDS011;54673;52.262;6.830;2023-07-31T06:18:03;14.07;;;4.80;;
67869;SDS011;54673;52.262;6.830;2023-07-31T06:20:32;14.90;;;4.60;;
67869;SDS011;54673;52.262;6.830;2023-07-31T06:22:59;12.02;;;4.07;;
67869;SDS011;54673;52.262;6.830;2023-07-31T06:25:24;13.25;;;5.18;;
67869;SDS011;54673;52.262;6.830;2023-07-31T06:27:50;10.67;;;4.17;;
67869;SDS011;54673;52.262;6.830;2023-07-31T06:30:16;13.30;;;4.68;;
67869;SDS011;54673;52.262;6.830;2023-07-31T06:32:42;11.20;;;3.83;;
67869;SDS011;54673;52.262;6.830;2023-07-31T06:35:08;13.20;;;4.88;;
67869;SDS011;54673;52.262;6.830;2023-07-31T06:37:33;15.90;;;4.17;;
67869;SDS011;54673;52.262;6.830;2023-07-31T06:39:59;14.38;;;4.07;;
67869;SDS011;54673;52.262;6.830;2023-07-31T06:42:24;12.17;;;4.27;;
67869;SDS011;54673;52.262;6.830;2023-07-31T06:44:50;10.52;;;4.28;;
67869;SDS011;54673;52.262;6.830;2023-07-31T06:47:16;10.80;;;4.03;;
67869;SDS011;54673;52.262;6.830;2023-07-31T06:49:41;11.43;;;3.90;;
67869;SDS011;54673;52.262;6.830;2023-07-31T06:52:07;10.80;;;3.83;;
67869;SDS011;54673;52.262;6.830;2023-07-31T06:54:32;10.13;;;3.33;;
67869;SDS011;54673;52.262;6.830;2023-07-31T06:56:58;8.15;;;3.55;;
67869;SDS011;54673;52.262;6.830;2023-07-31T06:59:23;9.43;;;3.27;;
67869;SDS011;54673;52.262;6.830;2023-07-31T07:01:49;12.07;;;3.73;;
67869;SDS011;54673;52.262;6.830;2023-07-31T07:04:15;12.50;;;3.58;;
67869;SDS011;54673;52.262;6.830;2023-07-31T07:06:41;9.63;;;3.43;;
67869;SDS011;54673;52.262;6.830;2023-07-31T07:09:07;9.07;;;3.55;;
67869;SDS011;54673;52.262;6.830;2023-07-31T07:11:33;10.00;;;3.03;;
67869;SDS011;54673;52.262;6.830;2023-07-31T07:13:59;7.17;;;3.50;;
67869;SDS011;54673;52.262;6.830;2023-07-31T07:16:25;9.80;;;2.90;;
67869;SDS011;54673;52.262;6.830;2023-07-31T07:18:51;5.43;;;2.80;;
67869;SDS011;54673;52.262;6.830;2023-07-31T07:21:17;8.27;;;3.08;;
67869;SDS011;54673;52.262;6.830;2023-07-31T07:23:43;7.28;;;2.72;;
67869;SDS011;54673;52.262;6.830;2023-07-31T07:26:08;7.13;;;3.00;;
67869;SDS011;54673;52.262;6.830;2023-07-31T07:28:34;6.87;;;3.17;;
67869;SDS011;54673;52.262;6.830;2023-07-31T07:31:02;7.13;;;2.90;;
67869;SDS011;54673;52.262;6.830;2023-07-31T07:33:27;7.27;;;2.60;;
67869;SDS011;54673;52.262;6.830;2023-07-31T07:35:56;12.23;;;2.97;;
67869;SDS011;54673;52.262;6.830;2023-07-31T07:38:32;7.85;;;2.75;;
67869;SDS011;54673;52.262;6.830;2023-07-31T07:41:16;8.87;;;3.30;;
67869;SDS011;54673;52.262;6.830;2023-07-31T07:43:42;7.70;;;3.10;;
67869;SDS011;54673;52.262;6.830;2023-07-31T07:46:07;6.93;;;2.67;;
67869;SDS011;54673;52.262;6.830;2023-07-31T07:48:33;6.07;;;2.80;;
67869;SDS011;54673;52.262;6.830;2023-07-31T07:50:58;7.40;;;2.77;;
67869;SDS011;54673;52.262;6.830;2023-07-31T07:53:24;5.90;;;2.30;;
67869;SDS011;54673;52.262;6.830;2023-07-31T07:55:50;5.70;;;2.23;;
67869;SDS011;54673;52.262;6.830;2023-07-31T07:58:15;5.33;;;2.30;;
67869;SDS011;54673;52.262;6.830;2023-07-31T08:00:41;5.25;;;2.42;;
67869;SDS011;54673;52.262;6.830;2023-07-31T08:03:13;6.03;;;2.47;;
67869;SDS011;54673;52.262;6.830;2023-07-31T08:05:38;3.85;;;2.25;;
67869;SDS011;54673;52.262;6.830;2023-07-31T08:08:04;4.10;;;2.03;;
67869;SDS011;54673;52.262;6.830;2023-07-31T08:10:31;3.83;;;1.83;;
67869;SDS011;54673;52.262;6.830;2023-07-31T08:12:56;5.77;;;2.10;;
67869;SDS011;54673;52.262;6.830;2023-07-31T08:15:22;6.70;;;2.00;;
67869;SDS011;54673;52.262;6.830;2023-07-31T08:17:48;4.43;;;2.10;;
67869;SDS011;54673;52.262;6.830;2023-07-31T08:20:13;3.00;;;1.88;;
67869;SDS011;54673;52.262;6.830;2023-07-31T08:22:39;4.47;;;1.70;;
67869;SDS011;54673;52.262;6.830;2023-07-31T08:25:05;4.57;;;1.73;;
67869;SDS011;54673;52.262;6.830;2023-07-31T08:27:31;2.72;;;1.75;;
67869;SDS011;54673;52.262;6.830;2023-07-31T08:29:57;3.20;;;1.70;;
67869;SDS011;54673;52.262;6.830;2023-07-31T08:32:23;2.33;;;1.40;;
67869;SDS011;54673;52.262;6.830;2023-07-31T08:34:48;2.77;;;1.57;;
67869;SDS011;54673;52.262;6.830;2023-07-31T08:37:14;2.17;;;1.40;;
67869;SDS011;54673;52.262;6.830;2023-07-31T08:39:39;2.13;;;1.33;;
67869;SDS011;54673;52.262;6.830;2023-07-31T08:42:07;3.33;;;1.50;;
67869;SDS011;54673;52.262;6.830;2023-07-31T08:44:34;2.75;;;1.50;;
67869;SDS011;54673;52.262;6.830;2023-07-31T08:47:00;3.28;;;1.30;;
67869;SDS011;54673;52.262;6.830;2023-07-31T08:49:28;2.03;;;1.30;;
67869;SDS011;54673;52.262;6.830;2023-07-31T08:51:55;2.83;;;1.30;;
67869;SDS011;54673;52.262;6.830;2023-07-31T08:54:23;2.08;;;1.30;;
67869;SDS011;54673;52.262;6.830;2023-07-31T08:56:49;3.53;;;1.13;;
67869;SDS011;54673;52.262;6.830;2023-07-31T08:59:15;2.25;;;1.50;;
67869;SDS011;54673;52.262;6.830;2023-07-31T09:01:43;2.20;;;1.20;;
67869;SDS011;54673;52.262;6.830;2023-07-31T09:04:17;1.40;;;1.30;;
67869;SDS011;54673;52.262;6.830;2023-07-31T09:06:44;2.83;;;1.43;;
67869;SDS011;54673;52.262;6.830;2023-07-31T09:09:10;1.50;;;1.20;;
67869;SDS011;54673;52.262;6.830;2023-07-31T09:11:37;2.53;;;1.25;;
67869;SDS011;54673;52.262;6.830;2023-07-31T09:14:03;2.77;;;1.50;;
67869;SDS011;54673;52.262;6.830;2023-07-31T09:16:33;1.50;;;1.05;;
67869;SDS011;54673;52.262;6.830;2023-07-31T09:18:59;1.10;;;1.00;;
67869;SDS011;54673;52.262;6.830;2023-07-31T09:21:27;2.50;;;1.07;;
67869;SDS011;54673;52.262;6.830;2023-07-31T09:23:53;1.27;;;1.10;;
67869;SDS011;54673;52.262;6.830;2023-07-31T09:26:35;2.30;;;1.35;;
67869;SDS011;54673;52.262;6.830;2023-07-31T09:29:04;1.53;;;1.17;;
67869;SDS011;54673;52.262;6.830;2023-07-31T09:31:33;1.35;;;1.10;;
67869;SDS011;54673;52.262;6.830;2023-07-31T09:34:06;1.38;;;1.10;;
67869;SDS011;54673;52.262;6.830;2023-07-31T09:36:32;1.87;;;1.40;;
67869;SDS011;54673;52.262;6.830;2023-07-31T09:39:04;1.90;;;1.40;;
67869;SDS011;54673;52.262;6.830;2023-07-31T09:41:30;1.20;;;1.10;;
67869;SDS011;54673;52.262;6.830;2023-07-31T09:43:56;1.88;;;1.45;;
67869;SDS011;54673;52.262;6.830;2023-07-31T09:46:21;1.80;;;1.30;;
67869;SDS011;54673;52.262;6.830;2023-07-31T09:48:47;1.95;;;1.30;;
67869;SDS011;54673;52.262;6.830;2023-07-31T09:51:13;1.33;;;0.90;;
67869;SDS011;54673;52.262;6.830;2023-07-31T09:53:39;1.43;;;1.13;;
67869;SDS011;54673;52.262;6.830;2023-07-31T09:56:04;2.23;;;1.50;;
67869;SDS011;54673;52.262;6.830;2023-07-31T09:58:30;2.20;;;1.80;;
67869;SDS011;54673;52.262;6.830;2023-07-31T10:01:00;2.40;;;1.65;;
67869;SDS011;54673;52.262;6.830;2023-07-31T10:03:27;2.10;;;1.80;;
67869;SDS011;54673;52.262;6.830;2023-07-31T10:05:57;2.58;;;2.20;;
67869;SDS011;54673;52.262;6.830;2023-07-31T10:08:28;2.33;;;2.05;;
67869;SDS011;54673;52.262;6.830;2023-07-31T10:10:57;3.07;;;2.23;;
67869;SDS011;54673;52.262;6.830;2023-07-31T10:13:24;2.50;;;1.75;;
67869;SDS011;54673;52.262;6.830;2023-07-31T10:15:52;4.13;;;2.07;;
67869;SDS011;54673;52.262;6.830;2023-07-31T10:18:19;2.50;;;1.80;;
67869;SDS011;54673;52.262;6.830;2023-07-31T10:20:46;1.92;;;1.70;;
67869;SDS011;54673;52.262;6.830;2023-07-31T10:23:12;2.20;;;2.00;;
67869;SDS011;54673;52.262;6.830;2023-07-31T10:25:39;2.63;;;1.85;;
67869;SDS011;54673;52.262;6.830;2023-07-31T10:28:05;2.05;;;1.73;;
67869;SDS011;54673;52.262;6.830;2023-07-31T10:30:32;3.30;;;2.20;;
67869;SDS011;54673;52.262;6.830;2023-07-31T10:33:00;3.40;;;2.30;;
67869;SDS011;54673;52.262;6.830;2023-07-31T10:35:26;1.73;;;1.57;;
67869;SDS011;54673;52.262;6.830;2023-07-31T10:37:52;2.58;;;2.10;;
67869;SDS011;54673;52.262;6.830;2023-07-31T10:40:19;3.00;;;2.00;;
67869;SDS011;54673;52.262;6.830;2023-07-31T10:42:49;2.53;;;2.10;;
67869;SDS011;54673;52.262;6.830;2023-07-31T10:45:24;2.38;;;1.58;;
67869;SDS011;54673;52.262;6.830;2023-07-31T10:48:02;2.87;;;2.00;;
67869;SDS011;54673;52.262;6.830;2023-07-31T10:50:29;2.30;;;1.80;;
67869;SDS011;54673;52.262;6.830;2023-07-31T10:52:59;2.30;;;2.05;;
67869;SDS011;54673;52.262;6.830;2023-07-31T10:57:58;4.68;;;3.25;;
67869;SDS011;54673;52.262;6.830;2023-07-31T11:00:34;4.07;;;2.75;;
67869;SDS011;54673;52.262;6.830;2023-07-31T11:03:06;3.77;;;2.20;;
67869;SDS011;54673;52.262;6.830;2023-07-31T11:05:48;4.40;;;3.25;;
67869;SDS011;54673;52.262;6.830;2023-07-31T11:10:51;5.17;;;3.90;;
67869;SDS011;54673;52.262;6.830;2023-07-31T11:13:31;4.80;;;3.25;;
67869;SDS011;54673;52.262;6.830;2023-07-31T11:15:59;4.78;;;3.55;;
67869;SDS011;54673;52.262;6.830;2023-07-31T11:18:27;5.17;;;4.10;;
67869;SDS011;54673;52.262;6.830;2023-07-31T11:20:53;7.53;;;4.38;;
67869;SDS011;54673;52.262;6.830;2023-07-31T11:23:22;7.13;;;5.00;;
67869;SDS011;54673;52.262;6.830;2023-07-31T11:25:48;3.47;;;2.57;;
67869;SDS011;54673;52.262;6.830;2023-07-31T11:28:16;5.40;;;3.15;;
67869;SDS011;54673;52.262;6.830;2023-07-31T11:30:48;6.85;;;4.53;;
67869;SDS011;54673;52.262;6.830;2023-07-31T11:33:14;4.97;;;3.77;;
67869;SDS011;54673;52.262;6.830;2023-07-31T11:35:43;6.47;;;4.03;;
67869;SDS011;54673;52.262;6.830;2023-07-31T11:38:11;4.57;;;2.70;;
67869;SDS011;54673;52.262;6.830;2023-07-31T11:40:46;6.83;;;4.40;;
67869;SDS011;54673;52.262;6.830;2023-07-31T11:43:12;10.15;;;7.00;;
67869;SDS011;54673;52.262;6.830;2023-07-31T11:45:41;9.17;;;5.33;;
67869;SDS011;54673;52.262;6.830;2023-07-31T11:48:23;9.55;;;6.95;;
67869;SDS011;54673;52.262;6.830;2023-07-31T11:50:52;11.63;;;7.25;;
67869;SDS011;54673;52.262;6.830;2023-07-31T11:53:21;6.40;;;4.23;;
67869;SDS011;54673;52.262;6.830;2023-07-31T11:56:00;12.30;;;6.50;;
67869;SDS011;54673;52.262;6.830;2023-07-31T11:58:27;9.73;;;6.00;;
67869;SDS011;54673;52.262;6.830;2023-07-31T12:00:55;9.47;;;6.07;;
67869;SDS011;54673;52.262;6.830;2023-07-31T12:03:23;9.13;;;5.45;;
67869;SDS011;54673;52.262;6.830;2023-07-31T12:05:49;10.47;;;6.63;;
67869;SDS011;54673;52.262;6.830;2023-07-31T12:08:14;8.48;;;4.53;;
67869;SDS011;54673;52.262;6.830;2023-07-31T12:10:41;10.70;;;6.35;;
67869;SDS011;54673;52.262;6.830;2023-07-31T12:13:11;8.97;;;6.20;;
67869;SDS011;54673;52.262;6.830;2023-07-31T12:15:44;8.70;;;5.90;;
67869;SDS011;54673;52.262;6.830;2023-07-31T12:18:15;11.00;;;7.17;;
67869;SDS011;54673;52.262;6.830;2023-07-31T12:20:44;7.93;;;5.50;;
67869;SDS011;54673;52.262;6.830;2023-07-31T12:23:20;8.73;;;5.78;;
67869;SDS011;54673;52.262;6.830;2023-07-31T12:26:00;8.10;;;4.90;;
67869;SDS011;54673;52.262;6.830;2023-07-31T12:28:25;8.77;;;4.93;;
67869;SDS011;54673;52.262;6.830;2023-07-31T12:30:51;13.93;;;6.22;;
67869;SDS011;54673;52.262;6.830;2023-07-31T12:33:18;8.07;;;5.20;;
67869;SDS011;54673;52.262;6.830;2023-07-31T12:35:45;6.97;;;4.53;;
67869;SDS011;54673;52.262;6.830;2023-07-31T12:38:12;5.77;;;4.30;;
67869;SDS011;54673;52.262;6.830;2023-07-31T12:40:39;9.90;;;4.80;;
67869;SDS011;54673;52.262;6.830;2023-07-31T12:43:06;7.47;;;4.47;;
67869;SDS011;54673;52.262;6.830;2023-07-31T12:45:33;7.95;;;4.32;;
67869;SDS011;54673;52.262;6.830;2023-07-31T12:47:59;7.67;;;4.40;;
67869;SDS011;54673;52.262;6.830;2023-07-31T12:50:25;7.70;;;4.25;;
67869;SDS011;54673;52.262;6.830;2023-07-31T12:52:53;6.45;;;4.30;;
67869;SDS011;54673;52.262;6.830;2023-07-31T12:55:19;8.07;;;4.13;;
67869;SDS011;54673;52.262;6.830;2023-07-31T12:57:46;7.35;;;5.00;;
67869;SDS011;54673;52.262;6.830;2023-07-31T13:00:12;7.77;;;5.00;;
67869;SDS011;54673;52.262;6.830;2023-07-31T13:02:38;6.60;;;3.50;;
67869;SDS011;54673;52.262;6.830;2023-07-31T13:05:03;6.40;;;4.05;;
67869;SDS011;54673;52.262;6.830;2023-07-31T13:07:29;5.97;;;3.63;;
67869;SDS011;54673;52.262;6.830;2023-07-31T13:09:55;6.53;;;4.60;;
67869;SDS011;54673;52.262;6.830;2023-07-31T13:12:21;7.90;;;5.40;;
67869;SDS011;54673;52.262;6.830;2023-07-31T13:14:46;8.20;;;5.05;;
67869;SDS011;54673;52.262;6.830;2023-07-31T13:17:12;6.57;;;4.67;;
67869;SDS011;54673;52.262;6.830;2023-07-31T13:19:38;7.95;;;5.13;;
67869;SDS011;54673;52.262;6.830;2023-07-31T13:22:03;11.23;;;6.57;;
67869;SDS011;54673;52.262;6.830;2023-07-31T13:24:29;10.50;;;5.93;;
67869;SDS011;54673;52.262;6.830;2023-07-31T13:26:55;8.00;;;4.43;;
67869;SDS011;54673;52.262;6.830;2023-07-31T13:29:21;5.85;;;3.80;;
67869;SDS011;54673;52.262;6.830;2023-07-31T13:31:47;8.37;;;5.27;;
67869;SDS011;54673;52.262;6.830;2023-07-31T13:34:13;5.78;;;4.10;;
67869;SDS011;54673;52.262;6.830;2023-07-31T13:36:38;8.97;;;5.40;;
67869;SDS011;54673;52.262;6.830;2023-07-31T13:39:04;12.73;;;5.88;;
67869;SDS011;54673;52.262;6.830;2023-07-31T13:41:30;6.63;;;4.70;;
67869;SDS011;54673;52.262;6.830;2023-07-31T13:43:55;7.65;;;5.25;;
67869;SDS011;54673;52.262;6.830;2023-07-31T13:46:21;4.97;;;3.30;;
67869;SDS011;54673;52.262;6.830;2023-07-31T13:48:47;7.32;;;4.15;;
67869;SDS011;54673;52.262;6.830;2023-07-31T13:51:12;5.90;;;3.90;;
67869;SDS011;54673;52.262;6.830;2023-07-31T13:53:38;6.27;;;4.43;;
67869;SDS011;54673;52.262;6.830;2023-07-31T13:56:03;8.00;;;5.00;;
67869;SDS011;54673;52.262;6.830;2023-07-31T13:58:29;7.97;;;5.00;;
67869;SDS011;54673;52.262;6.830;2023-07-31T14:00:55;7.15;;;4.03;;
67869;SDS011;54673;52.262;6.830;2023-07-31T14:03:20;6.83;;;3.80;;
67869;SDS011;54673;52.262;6.830;2023-07-31T14:05:46;8.13;;;4.60;;
67869;SDS011;54673;52.262;6.830;2023-07-31T14:08:11;7.15;;;4.68;;
67869;SDS011;54673;52.262;6.830;2023-07-31T14:10:37;6.93;;;4.37;;
67869;SDS011;54673;52.262;6.830;2023-07-31T14:13:03;7.38;;;4.50;;
67869;SDS011;54673;52.262;6.830;2023-07-31T14:15:28;6.67;;;3.53;;
67869;SDS011;54673;52.262;6.830;2023-07-31T14:17:54;5.63;;;4.05;;
67869;SDS011;54673;52.262;6.830;2023-07-31T14:20:19;8.90;;;4.67;;
67869;SDS011;54673;52.262;6.830;2023-07-31T14:22:45;8.73;;;4.70;;
67869;SDS011;54673;52.262;6.830;2023-07-31T14:25:11;6.70;;;4.00;;
67869;SDS011;54673;52.262;6.830;2023-07-31T14:27:36;7.57;;;5.03;;
67869;SDS011;54673;52.262;6.830;2023-07-31T14:30:03;9.57;;;5.28;;
67869;SDS011;54673;52.262;6.830;2023-07-31T14:32:29;5.38;;;3.92;;
67869;SDS011;54673;52.262;6.830;2023-07-31T14:34:54;5.63;;;3.83;;
67869;SDS011;54673;52.262;6.830;2023-07-31T14:37:20;9.38;;;4.32;;
67869;SDS011;54673;52.262;6.830;2023-07-31T14:39:46;5.60;;;3.67;;
67869;SDS011;54673;52.262;6.830;2023-07-31T14:42:11;7.18;;;4.50;;
67869;SDS011;54673;52.262;6.830;2023-07-31T14:44:37;9.20;;;4.23;;
67869;SDS011;54673;52.262;6.830;2023-07-31T14:47:03;7.00;;;3.42;;
67869;SDS011;54673;52.262;6.830;2023-07-31T14:49:29;7.57;;;3.70;;
67869;SDS011;54673;52.262;6.830;2023-07-31T14:51:55;4.65;;;3.17;;
67869;SDS011;54673;52.262;6.830;2023-07-31T14:54:20;5.80;;;3.10;;
67869;SDS011;54673;52.262;6.830;2023-07-31T14:56:46;4.25;;;2.95;;